createdAt,value
2019-04-16T00:00:23.034Z,4.10
2019-04-16T00:02:54.152Z,4.10
2019-04-16T00:05:36.832Z,4.00
2019-04-16T00:08:19.354Z,3.90
2019-04-16T00:10:39.487Z,3.80
2019-04-16T00:13:15.892Z,3.70
2019-04-16T00:15:44.812Z,3.60
2019-04-16T00:18:18.363Z,3.50
2019-04-16T00:20:55.084Z,3.40
2019-04-16T00:23:41.836Z,3.30
2019-04-16T00:26:10.685Z,3.20
2019-04-16T00:28:39.476Z,3.20
2019-04-16T00:31:08.520Z,3.10
2019-04-16T00:33:39.369Z,3.10
2019-04-16T00:36:07.722Z,3.10
2019-04-16T00:38:41.007Z,3.00
2019-04-16T00:41:07.014Z,3.00
2019-04-16T00:43:37.739Z,2.90
2019-04-16T00:46:08.487Z,2.90
2019-04-16T00:48:37.162Z,2.80
2019-04-16T00:51:05.872Z,2.80
2019-04-16T00:53:36.400Z,2.90
2019-04-16T00:56:05.277Z,2.80
2019-04-16T00:58:34.036Z,2.80
2019-04-16T01:01:02.847Z,2.80
2019-04-16T01:03:31.718Z,2.80
2019-04-16T01:06:00.608Z,2.70
2019-04-16T01:08:29.416Z,2.70
2019-04-16T01:10:58.566Z,2.70
2019-04-16T01:13:27.332Z,2.70
2019-04-16T01:15:56.149Z,2.70
2019-04-16T01:18:25.042Z,2.60
2019-04-16T01:20:53.812Z,2.60
2019-04-16T01:23:22.643Z,2.60
2019-04-16T01:25:55.374Z,2.70
2019-04-16T01:28:32.786Z,2.70
2019-04-16T01:31:15.094Z,2.70
2019-04-16T01:33:50.010Z,2.70
2019-04-16T01:36:31.898Z,2.70
2019-04-16T01:39:16.011Z,2.80
2019-04-16T01:41:32.532Z,2.80
2019-04-16T01:44:01.199Z,2.70
2019-04-16T01:46:32.518Z,2.70
2019-04-16T01:49:00.433Z,2.70
2019-04-16T01:51:29.336Z,2.70
2019-04-16T01:53:58.048Z,2.70
2019-04-16T01:56:28.810Z,2.70
2019-04-16T01:58:57.280Z,2.70
2019-04-16T02:01:25.993Z,2.70
2019-04-16T02:03:54.718Z,2.70
2019-04-16T02:06:25.847Z,2.60
2019-04-16T02:08:53.531Z,2.60
2019-04-16T02:11:22.225Z,2.50
2019-04-16T02:13:50.940Z,2.50
2019-04-16T02:16:19.655Z,2.40
2019-04-16T02:18:48.431Z,2.40
2019-04-16T02:21:17.174Z,2.40
2019-04-16T02:23:48.055Z,2.30
2019-04-16T02:26:16.233Z,2.30
2019-04-16T02:28:44.872Z,2.20
2019-04-16T02:31:16.126Z,2.20
2019-04-16T02:33:44.153Z,2.10
2019-04-16T02:36:13.025Z,2.10
2019-04-16T02:38:46.476Z,2.10
2019-04-16T02:41:16.755Z,2.10
2019-04-16T02:43:45.566Z,2.10
2019-04-16T02:46:14.421Z,2.10
2019-04-16T02:48:50.022Z,2.10
2019-04-16T02:51:24.285Z,2.00
2019-04-16T02:54:03.744Z,2.00
2019-04-16T02:56:51.994Z,1.90
2019-04-16T02:59:28.849Z,1.90
2019-04-16T03:02:02.219Z,1.80
2019-04-16T03:04:32.525Z,1.70
2019-04-16T03:07:03.232Z,1.60
2019-04-16T03:09:31.719Z,1.60
2019-04-16T03:12:00.524Z,1.50
2019-04-16T03:14:30.659Z,1.50
2019-04-16T03:17:11.462Z,1.50
2019-04-16T03:19:42.752Z,1.40
2019-04-16T03:22:11.445Z,1.40
2019-04-16T03:24:41.009Z,1.40
2019-04-16T03:27:10.079Z,1.40
2019-04-16T03:29:38.875Z,1.40
2019-04-16T03:32:12.463Z,1.30
2019-04-16T03:34:37.947Z,1.30
2019-04-16T03:37:06.735Z,1.30
2019-04-16T03:39:35.533Z,1.30
2019-04-16T03:42:04.276Z,1.30
2019-04-16T03:44:33.519Z,1.20
2019-04-16T03:47:04.018Z,1.30
2019-04-16T03:49:32.961Z,1.30
2019-04-16T03:52:04.847Z,1.30
2019-04-16T03:54:31.990Z,1.30
2019-04-16T03:57:02.079Z,1.30
2019-04-16T03:59:31.346Z,1.30
2019-04-16T04:02:00.133Z,1.30
2019-04-16T04:04:29.209Z,1.30
2019-04-16T04:07:08.998Z,1.30
2019-04-16T04:12:14.864Z,1.40
2019-04-16T04:14:43.446Z,1.50
2019-04-16T04:17:12.388Z,1.80
2019-04-16T04:19:43.520Z,2.40
2019-04-16T04:22:11.529Z,3.30
2019-04-16T04:24:40.317Z,4.20
2019-04-16T04:27:13.083Z,5.00
2019-04-16T04:29:39.587Z,6.10
2019-04-16T04:32:08.259Z,7.30
2019-04-16T04:34:37.109Z,8.10
2019-04-16T04:37:05.745Z,8.90
2019-04-16T04:39:34.843Z,9.50
2019-04-16T04:42:03.850Z,10.20
2019-04-16T04:44:33.612Z,11.00
2019-04-16T04:47:03.159Z,11.60
2019-04-16T04:49:31.939Z,12.50
2019-04-16T04:52:00.795Z,13.20
2019-04-16T04:54:29.658Z,13.90
2019-04-16T04:56:59.338Z,14.70
2019-04-16T04:59:29.037Z,15.20
2019-04-16T05:01:57.862Z,15.30
2019-04-16T05:04:28.190Z,15.70
2019-04-16T05:06:58.957Z,16.00
2019-04-16T05:09:35.190Z,15.80
2019-04-16T05:12:02.444Z,15.70
2019-04-16T05:14:31.089Z,16.30
2019-04-16T05:16:59.899Z,16.20
2019-04-16T05:19:28.803Z,16.50
2019-04-16T05:21:58.258Z,16.10
2019-04-16T05:27:42.657Z,17.10
2019-04-16T05:30:11.760Z,17.00
2019-04-16T05:32:40.643Z,15.70
2019-04-16T05:35:10.794Z,16.20
2019-04-16T05:37:40.065Z,16.90
2019-04-16T05:40:10.147Z,17.00
2019-04-16T05:42:38.725Z,18.10
2019-04-16T05:45:09.328Z,18.80
2019-04-16T05:47:38.182Z,19.20
2019-04-16T05:50:07.155Z,18.70
2019-04-16T05:52:36.701Z,18.80
2019-04-16T05:55:16.845Z,18.00
2019-04-16T05:57:46.380Z,18.30
2019-04-16T06:00:19.397Z,17.70
2019-04-16T06:02:50.521Z,17.50
2019-04-16T06:05:18.717Z,17.80
2019-04-16T06:07:47.375Z,17.60
2019-04-16T06:10:18.073Z,17.50
2019-04-16T06:12:48.383Z,17.30
2019-04-16T06:15:22.247Z,17.50
2019-04-16T06:18:06.732Z,18.10
2019-04-16T06:20:43.057Z,18.10
2019-04-16T06:23:13.456Z,18.00
2019-04-16T06:25:49.372Z,17.30
2019-04-16T06:28:36.341Z,17.00
2019-04-16T06:31:10.040Z,17.20
2019-04-16T06:33:38.785Z,17.90
2019-04-16T06:36:14.563Z,17.30
2019-04-16T06:38:47.726Z,17.20
2019-04-16T06:41:19.610Z,17.80
2019-04-16T06:43:59.636Z,17.70
2019-04-16T06:46:46.530Z,18.10
2019-04-16T06:49:20.294Z,18.80
2019-04-16T06:51:53.451Z,18.10
2019-04-16T06:54:25.589Z,17.60
2019-04-16T06:57:09.612Z,17.90
2019-04-16T06:59:43.040Z,18.00
2019-04-16T07:02:20.003Z,18.50
2019-04-16T07:04:50.488Z,18.50
2019-04-16T07:07:39.717Z,17.20
2019-04-16T07:10:04.341Z,16.80
2019-04-16T07:12:37.968Z,17.20
2019-04-16T07:15:04.957Z,17.70
2019-04-16T07:17:34.526Z,18.30
2019-04-16T07:20:06.792Z,17.70
2019-04-16T07:22:35.534Z,17.90
2019-04-16T07:25:06.516Z,17.90
2019-04-16T07:30:28.227Z,17.80
2019-04-16T07:33:00.745Z,17.90
2019-04-16T07:35:33.518Z,17.80
2019-04-16T07:38:22.397Z,18.00
2019-04-16T07:40:55.832Z,18.00
2019-04-16T07:43:42.617Z,17.80
2019-04-16T07:46:30.366Z,17.00
2019-04-16T07:49:12.929Z,17.00
2019-04-16T07:51:59.631Z,16.20
2019-04-16T07:54:48.231Z,15.90
2019-04-16T07:57:16.963Z,16.40
2019-04-16T07:59:45.620Z,16.60
2019-04-16T08:02:14.452Z,16.60
2019-04-16T08:04:43.136Z,16.50
2019-04-16T08:07:13.867Z,16.70
2019-04-16T08:09:42.572Z,17.40
2019-04-16T08:12:28.702Z,17.80
2019-04-16T08:14:41.650Z,18.20
2019-04-16T08:17:10.370Z,18.20
2019-04-16T08:19:39.132Z,17.90
2019-04-16T08:22:07.718Z,18.10
2019-04-16T08:24:38.086Z,18.10
2019-04-16T08:27:09.544Z,17.90
2019-04-16T08:29:36.995Z,17.90
2019-04-16T08:32:05.922Z,17.90
2019-04-16T08:34:34.683Z,17.80
2019-04-16T08:37:03.435Z,18.10
2019-04-16T08:39:32.101Z,17.50
2019-04-16T08:42:00.812Z,17.10
2019-04-16T08:44:29.637Z,17.30
2019-04-16T08:46:59.123Z,17.50
2019-04-16T08:49:28.504Z,17.70
2019-04-16T08:51:57.275Z,17.50
2019-04-16T08:54:26.026Z,17.50
2019-04-16T08:56:54.645Z,17.60
2019-04-16T08:59:23.525Z,17.80
2019-04-16T09:01:54.384Z,18.10
2019-04-16T09:04:24.330Z,18.40
2019-04-16T09:06:53.126Z,18.60
2019-04-16T09:09:24.719Z,18.20
2019-04-16T09:11:55.708Z,18.20
2019-04-16T09:14:26.148Z,18.10
2019-04-16T09:17:02.542Z,18.00
2019-04-16T09:19:31.138Z,17.40
2019-04-16T09:21:59.860Z,17.40
2019-04-16T09:24:40.178Z,17.40
2019-04-16T09:27:21.198Z,17.30
2019-04-16T09:29:54.497Z,17.30
2019-04-16T09:32:42.675Z,17.10
2019-04-16T09:35:18.405Z,16.80
2019-04-16T09:37:47.856Z,16.70
2019-04-16T09:40:30.112Z,16.20
2019-04-16T09:43:15.730Z,16.00
2019-04-16T09:45:33.902Z,16.30
2019-04-16T09:48:03.822Z,16.20
2019-04-16T09:50:32.632Z,16.10
2019-04-16T09:53:02.070Z,16.10
2019-04-16T09:55:30.997Z,16.20
2019-04-16T09:58:06.050Z,16.10
2019-04-16T10:00:39.467Z,16.20
2019-04-16T10:03:09.884Z,15.80
2019-04-16T10:05:38.535Z,15.70
2019-04-16T10:08:09.524Z,15.60
2019-04-16T10:10:37.632Z,15.60
2019-04-16T10:13:06.299Z,15.30
2019-04-16T10:15:35.042Z,15.40
2019-04-16T10:18:03.766Z,15.20
2019-04-16T10:20:32.556Z,15.00
2019-04-16T10:23:02.898Z,15.10
2019-04-16T10:25:33.578Z,15.10
2019-04-16T10:28:04.923Z,14.90
2019-04-16T10:30:38.759Z,15.00
2019-04-16T10:33:07.601Z,15.20
2019-04-16T10:35:36.440Z,15.10
2019-04-16T10:38:06.835Z,15.50
2019-04-16T10:40:37.213Z,15.70
2019-04-16T10:43:20.075Z,15.30
2019-04-16T10:45:53.580Z,15.20
2019-04-16T10:48:35.921Z,15.00
2019-04-16T10:51:09.350Z,15.00
2019-04-16T10:53:42.399Z,15.10
2019-04-16T10:56:20.716Z,15.10
2019-04-16T10:59:02.660Z,15.30
2019-04-16T11:01:35.158Z,15.30
2019-04-16T11:04:16.805Z,15.00
2019-04-16T11:06:49.955Z,15.00
2019-04-16T11:09:19.013Z,15.00
2019-04-16T11:11:47.887Z,15.40
2019-04-16T11:14:16.677Z,15.40
2019-04-16T11:16:47.165Z,15.40
2019-04-16T11:19:16.028Z,15.30
2019-04-16T11:21:44.768Z,15.00
2019-04-16T11:24:13.806Z,14.90
2019-04-16T11:26:44.379Z,14.50
2019-04-16T11:29:13.171Z,14.60
2019-04-16T11:31:41.984Z,14.50
2019-04-16T11:34:11.709Z,14.60
2019-04-16T11:36:41.946Z,14.50
2019-04-16T11:39:11.128Z,14.40
2019-04-16T11:41:42.293Z,14.50
2019-04-16T11:44:15.643Z,14.70
2019-04-16T11:46:41.439Z,14.90
2019-04-16T11:49:10.243Z,14.90
2019-04-16T11:51:39.124Z,15.00
2019-04-16T11:54:11.216Z,15.00
2019-04-16T11:56:38.304Z,15.20
2019-04-16T11:59:07.112Z,14.90
2019-04-16T12:01:37.583Z,14.60
2019-04-16T12:04:14.561Z,14.60
2019-04-16T12:06:51.677Z,14.80
2019-04-16T12:09:31.352Z,14.70
2019-04-16T12:12:04.672Z,14.60
2019-04-16T12:14:35.164Z,14.60
2019-04-16T12:17:06.107Z,14.60
2019-04-16T12:19:49.154Z,14.40
2019-04-16T12:22:19.620Z,14.30
2019-04-16T12:24:49.971Z,14.30
2019-04-16T12:27:20.551Z,14.20
2019-04-16T12:29:50.857Z,14.10
2019-04-16T12:32:26.837Z,13.90
2019-04-16T12:35:10.933Z,13.50
2019-04-16T12:37:57.755Z,13.70
2019-04-16T12:40:30.503Z,13.60
2019-04-16T12:43:14.683Z,13.70
2019-04-16T12:45:53.771Z,13.60
2019-04-16T12:48:27.225Z,13.50
2019-04-16T12:51:06.641Z,13.50
2019-04-16T12:53:37.042Z,13.50
2019-04-16T12:56:13.209Z,13.20
2019-04-16T12:58:50.685Z,13.10
2019-04-16T13:01:36.488Z,13.10
2019-04-16T13:04:23.596Z,12.90
2019-04-16T13:06:59.939Z,12.70
2019-04-16T13:09:33.294Z,12.70
2019-04-16T13:12:12.790Z,12.50
2019-04-16T13:15:01.115Z,12.50
2019-04-16T13:17:39.242Z,12.40
2019-04-16T13:20:15.905Z,12.40
2019-04-16T13:22:49.225Z,12.30
2019-04-16T13:25:19.700Z,12.40
2019-04-16T13:27:50.860Z,12.30
2019-04-16T13:30:20.015Z,12.40
2019-04-16T13:32:49.098Z,12.30
2019-04-16T13:35:18.056Z,12.30
2019-04-16T13:37:46.760Z,12.20
2019-04-16T13:40:17.797Z,11.90
2019-04-16T13:42:46.648Z,11.60
2019-04-16T13:45:27.027Z,11.20
2019-04-16T13:47:55.612Z,11.20
2019-04-16T13:50:28.539Z,11.10
2019-04-16T13:53:04.900Z,11.20
2019-04-16T13:55:49.460Z,11.10
2019-04-16T13:58:34.495Z,11.00
2019-04-16T14:01:14.034Z,10.80
2019-04-16T14:03:42.977Z,10.60
2019-04-16T14:06:11.919Z,10.60
2019-04-16T14:08:40.636Z,10.40
2019-04-16T14:11:09.624Z,10.20
2019-04-16T14:13:38.516Z,10.30
2019-04-16T14:16:12.705Z,10.00
2019-04-16T14:18:40.186Z,10.00
2019-04-16T14:21:09.153Z,9.90
2019-04-16T14:23:39.324Z,9.90
2019-04-16T14:26:08.303Z,9.60
2019-04-16T14:28:51.174Z,9.60
2019-04-16T14:31:07.827Z,9.50
2019-04-16T14:33:43.963Z,9.30
2019-04-16T14:36:13.555Z,9.30
2019-04-16T14:38:52.822Z,9.20
2019-04-16T14:41:21.565Z,9.10
2019-04-16T14:44:08.164Z,8.90
2019-04-16T14:46:37.056Z,8.70
2019-04-16T14:49:05.870Z,8.60
2019-04-16T14:51:34.648Z,8.60
2019-04-16T14:54:07.953Z,8.60
2019-04-16T14:56:38.313Z,8.60
2019-04-16T14:59:08.698Z,8.60
2019-04-16T15:01:38.981Z,8.50
2019-04-16T15:04:17.957Z,8.60
2019-04-16T15:06:52.799Z,8.50
2019-04-16T15:09:29.168Z,8.50
2019-04-16T15:12:08.707Z,8.50
2019-04-16T15:14:48.699Z,8.40
2019-04-16T15:17:22.026Z,8.20
2019-04-16T15:20:09.096Z,8.20
2019-04-16T15:22:42.422Z,8.20
2019-04-16T15:25:15.293Z,8.20
2019-04-16T15:27:59.438Z,8.20
2019-04-16T15:30:46.150Z,8.30
2019-04-16T15:33:35.788Z,8.20
2019-04-16T15:36:04.976Z,8.40
2019-04-16T15:38:44.449Z,8.30
2019-04-16T15:41:17.483Z,8.40
2019-04-16T15:44:04.966Z,8.40
2019-04-16T15:46:51.481Z,8.50
2019-04-16T15:49:39.986Z,8.60
2019-04-16T15:52:13.077Z,8.60
2019-04-16T15:54:49.310Z,8.70
2019-04-16T15:57:31.866Z,8.80
2019-04-16T16:00:08.331Z,8.70
2019-04-16T16:02:39.082Z,8.70
2019-04-16T16:05:09.864Z,8.60
2019-04-16T16:07:40.261Z,8.70
2019-04-16T16:10:17.982Z,8.60
2019-04-16T16:12:50.820Z,8.70
2019-04-16T16:15:19.294Z,8.60
2019-04-16T16:17:48.232Z,8.60
2019-04-16T16:20:17.079Z,8.50
2019-04-16T16:22:45.855Z,8.40
2019-04-16T16:25:14.706Z,8.40
2019-04-16T16:27:46.949Z,8.30
2019-04-16T16:30:18.699Z,8.30
2019-04-16T16:32:47.457Z,8.30
2019-04-16T16:35:17.742Z,8.30
2019-04-16T16:37:46.796Z,8.30
2019-04-16T16:40:16.159Z,8.30
2019-04-16T16:43:10.171Z,8.30
2019-04-16T16:45:44.684Z,8.30
2019-04-16T16:48:23.202Z,8.40
2019-04-16T16:50:53.022Z,8.40
2019-04-16T16:53:23.736Z,8.40
2019-04-16T16:55:53.058Z,8.40
2019-04-16T16:58:26.348Z,8.40
2019-04-16T17:01:14.047Z,8.40
2019-04-16T17:03:53.874Z,8.40
2019-04-16T17:06:24.420Z,8.40
2019-04-16T17:08:53.233Z,8.30
2019-04-16T17:11:22.228Z,8.30
2019-04-16T17:13:51.183Z,8.30
2019-04-16T17:16:26.359Z,8.30
2019-04-16T17:18:55.210Z,8.30
2019-04-16T17:21:24.098Z,8.40
2019-04-16T17:23:53.053Z,8.30
2019-04-16T17:26:21.874Z,8.30
2019-04-16T17:28:50.509Z,8.40
2019-04-16T17:31:19.320Z,8.40
2019-04-16T17:33:48.172Z,8.40
2019-04-16T17:36:16.931Z,8.40
2019-04-16T17:38:45.760Z,8.30
2019-04-16T17:41:16.210Z,8.20
2019-04-16T17:44:04.016Z,8.30
2019-04-16T17:46:34.663Z,8.30
2019-04-16T17:49:05.178Z,8.30
2019-04-16T17:51:38.385Z,8.40
2019-04-16T17:54:08.891Z,8.40
2019-04-16T17:56:39.328Z,8.40
2019-04-16T17:59:15.652Z,8.40
2019-04-16T18:01:54.620Z,8.40
2019-04-16T18:04:28.089Z,8.30
2019-04-16T18:06:58.566Z,8.30
2019-04-16T18:09:28.949Z,8.30
2019-04-16T18:12:16.920Z,8.30
2019-04-16T18:15:08.864Z,8.40
2019-04-16T18:17:46.874Z,8.40
2019-04-16T18:20:27.190Z,8.40
2019-04-16T18:23:03.276Z,8.30
2019-04-16T18:25:54.912Z,8.30
2019-04-16T18:28:30.116Z,8.30
2019-04-16T18:31:16.824Z,8.30
2019-04-16T18:34:05.152Z,8.30
2019-04-16T18:36:34.562Z,8.30
2019-04-16T18:39:37.221Z,8.30
2019-04-16T18:41:59.932Z,8.20
2019-04-16T18:44:38.361Z,8.20
2019-04-16T18:47:20.918Z,8.20
2019-04-16T18:49:53.560Z,8.20
2019-04-16T18:52:25.325Z,8.20
2019-04-16T18:54:54.192Z,8.30
2019-04-16T18:57:23.146Z,8.30
2019-04-16T18:59:52.490Z,8.30
2019-04-16T19:02:25.865Z,8.30
2019-04-16T19:04:54.692Z,8.40
2019-04-16T19:07:30.576Z,8.30
2019-04-16T19:09:59.021Z,8.30
2019-04-16T19:12:27.612Z,8.30
2019-04-16T19:14:56.737Z,8.40
2019-04-16T19:17:25.672Z,8.40
2019-04-16T19:19:54.481Z,8.40
2019-04-16T19:22:23.339Z,8.40
2019-04-16T19:24:52.406Z,8.40
2019-04-16T19:27:21.360Z,8.50
2019-04-16T19:29:50.112Z,8.50
2019-04-16T19:32:19.012Z,8.50
2019-04-16T19:34:47.888Z,8.40
2019-04-16T19:37:16.698Z,8.50
2019-04-16T19:39:46.649Z,8.50
2019-04-16T19:42:16.060Z,8.50
2019-04-16T19:44:44.763Z,8.50
2019-04-16T19:47:13.466Z,8.60
2019-04-16T19:49:42.354Z,8.60
2019-04-16T19:52:14.338Z,8.50
2019-04-16T19:54:45.095Z,8.50
2019-04-16T19:57:14.195Z,8.50
2019-04-16T19:59:46.336Z,8.50
2019-04-16T20:02:13.610Z,8.60
2019-04-16T20:04:44.534Z,8.50
2019-04-16T20:07:13.302Z,8.60
2019-04-16T20:09:42.048Z,8.50
2019-04-16T20:12:11.049Z,8.60
2019-04-16T20:14:39.833Z,8.60
2019-04-16T20:17:08.618Z,8.50
2019-04-16T20:19:40.425Z,8.50
2019-04-16T20:22:09.175Z,8.50
2019-04-16T20:24:38.103Z,8.60
2019-04-16T20:27:07.089Z,8.50
2019-04-16T20:29:35.927Z,8.50
2019-04-16T20:32:04.681Z,8.50
2019-04-16T20:34:33.575Z,8.50
2019-04-16T20:37:02.250Z,8.50
2019-04-16T20:39:30.985Z,8.50
2019-04-16T20:42:00.157Z,8.50
2019-04-16T20:44:29.179Z,8.50
2019-04-16T20:46:58.581Z,8.50
2019-04-16T20:49:28.274Z,8.50
2019-04-16T20:52:00.548Z,8.50
2019-04-16T20:54:27.354Z,8.50
2019-04-16T20:56:56.145Z,8.60
2019-04-16T20:59:25.023Z,8.50
2019-04-16T21:01:54.084Z,8.50
2019-04-16T21:04:22.971Z,8.50
2019-04-16T21:06:51.656Z,8.50
2019-04-16T21:09:20.432Z,8.50
2019-04-16T21:11:52.576Z,8.60
2019-04-16T21:14:21.808Z,8.60
2019-04-16T21:16:50.120Z,8.60
2019-04-16T21:19:23.279Z,8.70
2019-04-16T21:21:49.291Z,8.70
2019-04-16T21:24:18.069Z,8.70
2019-04-16T21:26:50.988Z,8.70
2019-04-16T21:29:25.870Z,8.70
2019-04-16T21:31:56.662Z,8.70
2019-04-16T21:34:30.177Z,8.70
2019-04-16T21:37:16.951Z,8.70
2019-04-16T21:39:51.131Z,8.70
2019-04-16T21:42:20.681Z,8.60
2019-04-16T21:44:49.408Z,8.60
2019-04-16T21:47:23.133Z,8.60
2019-04-16T21:49:48.671Z,8.60
2019-04-16T21:52:17.558Z,8.60
2019-04-16T21:54:46.205Z,8.60
2019-04-16T21:57:14.926Z,8.50
2019-04-16T21:59:43.918Z,8.50
2019-04-16T22:02:20.649Z,8.50
2019-04-16T22:04:49.391Z,8.40
2019-04-16T22:07:18.153Z,8.40
2019-04-16T22:09:47.075Z,8.40
2019-04-16T22:12:16.322Z,8.40
2019-04-16T22:14:45.236Z,8.30
2019-04-16T22:17:13.990Z,8.30
2019-04-16T22:19:54.017Z,8.30
2019-04-16T22:22:14.745Z,8.30
2019-04-16T22:24:43.719Z,8.30
2019-04-16T22:27:12.628Z,8.30
2019-04-16T22:29:41.304Z,8.30
2019-04-16T22:32:10.057Z,8.20
2019-04-16T22:34:38.877Z,8.20
2019-04-16T22:37:07.654Z,8.20
2019-04-16T22:39:43.966Z,8.20
2019-04-16T22:42:17.323Z,8.20
2019-04-16T22:44:47.682Z,8.20
2019-04-16T22:47:18.043Z,8.20
2019-04-16T22:49:46.655Z,8.20
2019-04-16T22:52:15.328Z,8.10
2019-04-16T22:54:44.253Z,8.10
2019-04-16T22:57:13.970Z,8.10
2019-04-16T22:59:42.713Z,8.00
2019-04-16T23:02:13.821Z,8.00
2019-04-16T23:04:44.106Z,8.00
2019-04-16T23:07:12.933Z,8.00
2019-04-16T23:09:41.838Z,8.00
2019-04-16T23:12:12.441Z,7.90
2019-04-16T23:14:48.193Z,7.90
2019-04-16T23:17:17.534Z,7.90
2019-04-16T23:19:51.727Z,7.90
2019-04-16T23:22:20.645Z,7.90
2019-04-16T23:24:51.808Z,7.90
2019-04-16T23:27:19.845Z,7.90
2019-04-16T23:29:48.538Z,7.80
2019-04-16T23:32:17.127Z,7.80
2019-04-16T23:34:45.912Z,7.80
2019-04-16T23:37:14.683Z,7.80
2019-04-16T23:39:43.665Z,7.70
2019-04-16T23:42:12.431Z,7.70
2019-04-16T23:44:42.881Z,7.70
2019-04-16T23:47:19.481Z,7.60
2019-04-16T23:49:49.891Z,7.60
2019-04-16T23:52:22.725Z,7.60
2019-04-16T23:54:59.289Z,7.60
2019-04-16T23:57:39.082Z,7.60
